Time;durP1;ratioP1;P1;durP2;ratioP2;P2;SDS_P1;SDS_P2;PMS_P1;PMS_P2;Temp;Humidity;BMP_temperature;BMP_pressure;BME280_temperature;BME280_humidity;BME280_pressure;Samples;Min_cycle;Max_cycle;Signal;HPM_P1;HPM_P2
2023/10/12 00:01:57;;;;;;;8.87;2.83;;;22.40;88.00;;;;;;5052864;28;20181;-74
2023/10/12 00:04:43;;;;;;;8.97;2.53;;;22.40;88.30;;;;;;5035077;28;20575;-74
2023/10/12 00:07:15;;;;;;;6.77;2.67;;;22.40;88.90;;;;;;5034705;28;20623;-73
2023/10/12 00:10:04;;;;;;;6.77;2.77;;;22.40;89.00;;;;;;5027025;28;20591;-74
2023/10/12 00:12:30;;;;;;;6.00;3.43;;;22.40;88.90;;;;;;5052481;28;20587;-74
2023/10/12 00:14:55;;;;;;;7.20;2.30;;;22.40;88.70;;;;;;5052539;28;20591;-74
2023/10/12 00:17:23;;;;;;;11.73;3.37;;;22.40;89.10;;;;;;5034393;28;20209;-74
2023/10/12 00:19:53;;;;;;;7.43;2.60;;;22.40;89.10;;;;;;5035001;28;20197;-74
2023/10/12 00:22:19;;;;;;;5.93;2.47;;;22.40;89.20;;;;;;5052562;28;20575;-74
2023/10/12 00:24:45;;;;;;;9.20;2.73;;;22.40;89.20;;;;;;5052913;28;20972;-74
2023/10/12 00:27:14;;;;;;;6.00;2.80;;;22.50;89.40;;;;;;5033878;28;20615;-74
2023/10/12 00:29:41;;;;;;;5.27;2.17;;;22.40;89.40;;;;;;5052448;28;20192;-74
2023/10/12 00:32:08;;;;;;;6.33;2.40;;;22.40;89.50;;;;;;5052316;28;20588;-73
2023/10/12 00:34:38;;;;;;;4.83;2.40;;;22.50;89.50;;;;;;5018084;28;20649;-73
2023/10/12 00:37:06;;;;;;;8.50;2.30;;;22.40;89.60;;;;;;5017416;28;20655;-74
2023/10/12 00:42:18;;;;;;;7.03;2.30;;;22.50;89.70;;;;;;5052181;28;20591;-74
2023/10/12 00:44:47;;;;;;;8.87;2.73;;;22.40;89.50;;;;;;5017780;28;20580;-73
2023/10/12 00:47:19;;;;;;;4.80;2.00;;;22.40;89.70;;;;;;5017497;28;20624;-74
2023/10/12 00:49:48;;;;;;;4.27;2.17;;;22.40;89.70;;;;;;5034138;28;20591;-74
2023/10/12 00:52:26;;;;;;;6.03;2.20;;;22.40;89.80;;;;;;5033355;28;20938;-73
2023/10/12 00:55:02;;;;;;;4.87;2.20;;;22.40;89.80;;;;;;5017474;28;20606;-73
2023/10/12 00:57:28;;;;;;;5.87;2.33;;;22.40;89.90;;;;;;5017470;28;20678;-73
2023/10/12 00:59:54;;;;;;;3.87;1.80;;;22.40;89.90;;;;;;5051911;28;21132;-74
2023/10/12 01:02:24;;;;;;;7.73;2.67;;;22.40;90.00;;;;;;5033397;28;20204;-74
2023/10/12 01:04:53;;;;;;;9.50;2.60;;;22.40;90.00;;;;;;5017268;28;20618;-74
2023/10/12 01:07:20;;;;;;;4.60;3.30;;;22.40;90.00;;;;;;5033553;28;20624;-74
2023/10/12 01:09:48;;;;;;;3.40;2.47;;;22.40;90.00;;;;;;5033391;28;20710;-74
2023/10/12 01:12:14;;;;;;;6.30;3.20;;;22.30;90.00;;;;;;5052009;28;21021;-74
2023/10/12 01:14:47;;;;;;;5.23;2.70;;;22.30;90.00;;;;;;5033805;28;20951;-73
2023/10/12 01:17:17;;;;;;;10.03;3.00;;;22.30;90.00;;;;;;5016768;28;20655;-73
2023/10/12 01:19:46;;;;;;;6.93;2.77;;;22.30;90.00;;;;;;5016955;28;20607;-74
2023/10/12 01:22:14;;;;;;;4.47;2.10;;;22.30;90.10;;;;;;5017029;28;20583;-73
2023/10/12 01:27:21;;;;;;;6.00;2.30;;;22.30;90.00;;;;;;5050811;28;20628;-73
2023/10/12 01:29:50;;;;;;;9.30;2.70;;;22.30;90.10;;;;;;5017026;28;20702;-74
2023/10/12 01:34:53;;;;;;;5.37;1.97;;;22.30;90.20;;;;;;5016916;28;20782;-73
2023/10/12 01:37:25;;;;;;;6.23;2.60;;;22.30;90.10;;;;;;5033172;28;20230;-73
2023/10/12 01:45:18;;;;;;;7.57;2.10;;;22.20;90.10;;;;;;5016532;28;20583;-73
2023/10/12 01:47:45;;;;;;;4.73;2.03;;;22.20;90.10;;;;;;5016362;28;20661;-74
2023/10/12 01:50:11;;;;;;;4.97;2.67;;;22.20;90.10;;;;;;5016666;28;20583;-73
2023/10/12 01:52:37;;;;;;;6.67;3.47;;;22.10;90.10;;;;;;5050898;28;20594;-74
2023/10/12 01:55:16;;;;;;;4.10;2.20;;;22.10;90.10;;;;;;5032887;28;20998;-74
2023/10/12 01:57:53;;;;;;;5.43;2.60;;;22.10;90.10;;;;;;5015984;28;20654;-74
2023/10/12 02:00:25;;;;;;;5.53;2.30;;;22.10;90.10;;;;;;5016654;28;20593;-73
2023/10/12 02:03:00;;;;;;;7.27;2.50;;;22.10;90.20;;;;;;5017184;28;20581;-72
2023/10/12 02:05:30;;;;;;;9.73;2.60;;;22.00;90.10;;;;;;5015543;28;20579;-72
2023/10/12 02:08:04;;;;;;;5.97;2.37;;;22.00;89.70;;;;;;5032720;28;20665;-71
2023/10/12 02:10:43;;;;;;;4.07;1.87;;;22.00;89.60;;;;;;5050756;28;20583;-72
2023/10/12 02:13:10;;;;;;;6.70;2.33;;;22.00;89.60;;;;;;5050259;28;20645;-72
2023/10/12 02:15:37;;;;;;;5.43;2.67;;;22.00;89.50;;;;;;5015540;28;20598;-72
2023/10/12 02:18:11;;;;;;;3.77;1.97;;;21.90;89.30;;;;;;4999635;28;20651;-73
2023/10/12 02:20:42;;;;;;;4.33;1.90;;;21.90;89.30;;;;;;5016553;28;20595;-73
2023/10/12 02:23:12;;;;;;;4.43;2.13;;;21.90;89.20;;;;;;5032871;28;20954;-73
2023/10/12 02:25:50;;;;;;;6.60;2.13;;;21.90;89.20;;;;;;5016077;28;21218;-73
2023/10/12 02:28:22;;;;;;;4.83;1.83;;;21.90;89.20;;;;;;5016171;28;20619;-73
2023/10/12 02:30:54;;;;;;;6.70;2.63;;;21.90;89.10;;;;;;5016219;28;20584;-73
2023/10/12 02:33:27;;;;;;;4.20;2.30;;;21.80;89.10;;;;;;5016085;28;20588;-73
2023/10/12 02:35:53;;;;;;;5.50;2.73;;;21.80;89.20;;;;;;5050187;28;20906;-73
2023/10/12 02:38:27;;;;;;;8.20;3.40;;;21.70;89.20;;;;;;5032478;28;20642;-73
2023/10/12 02:40:57;;;;;;;9.63;2.17;;;21.70;89.50;;;;;;5049221;28;20618;-73
2023/10/12 02:43:27;;;;;;;5.63;2.37;;;21.60;89.80;;;;;;5032654;28;20602;-73
2023/10/12 02:45:54;;;;;;;5.60;2.77;;;21.60;90.00;;;;;;5015652;28;20624;-73
2023/10/12 02:48:23;;;;;;;9.90;2.50;;;21.50;90.10;;;;;;5050386;28;20612;-74
2023/10/12 02:50:58;;;;;;;5.20;2.67;;;21.50;90.30;;;;;;5016067;28;20588;-74
2023/10/12 02:53:30;;;;;;;5.67;2.40;;;21.40;90.50;;;;;;5016016;28;20583;-74
2023/10/12 02:56:01;;;;;;;6.00;2.90;;;21.30;90.70;;;;;;5015366;28;20576;-73
2023/10/12 02:58:30;;;;;;;4.70;2.17;;;21.20;91.00;;;;;;5032301;28;20631;-73
2023/10/12 03:01:16;;;;;;;4.57;3.10;;;21.10;91.30;;;;;;5032576;28;21154;-73
2023/10/12 03:03:48;;;;;;;7.17;3.03;;;21.10;91.60;;;;;;5032492;28;20915;-73
2023/10/12 03:06:21;;;;;;;3.17;2.33;;;21.10;91.70;;;;;;5032146;28;20587;-73
2023/10/12 03:11:29;;;;;;;6.43;2.83;;;21.00;91.90;;;;;;5015916;28;20593;-74
2023/10/12 03:14:12;;;;;;;4.63;3.07;;;21.00;92.20;;;;;;5015457;28;20701;-74
2023/10/12 03:16:41;;;;;;;6.47;3.30;;;20.90;92.30;;;;;;5035142;28;20638;-75
2023/10/12 03:19:26;;;;;;;3.80;2.60;;;20.90;92.60;;;;;;5019505;28;20649;-74
2023/10/12 03:21:52;;;;;;;6.40;3.13;;;20.90;92.70;;;;;;5011623;28;21118;-73
2023/10/12 03:24:29;;;;;;;4.07;2.43;;;20.80;93.30;;;;;;5024107;28;20578;-73
2023/10/12 03:27:17;;;;;;;5.60;2.80;;;20.80;93.10;;;;;;5028038;28;21031;-73
2023/10/12 03:29:43;;;;;;;8.70;2.87;;;20.70;93.30;;;;;;5053206;28;20583;-73
2023/10/12 03:32:11;;;;;;;9.77;4.03;;;20.70;93.50;;;;;;5049824;28;20611;-74
2023/10/12 03:37:18;;;;;;;8.50;3.70;;;20.70;93.90;;;;;;5035256;28;20654;-74
2023/10/12 03:45:08;;;;;;;4.20;3.00;;;20.60;94.30;;;;;;5051930;28;20571;-75
2023/10/12 03:47:46;;;;;;;5.47;3.30;;;20.60;94.70;;;;;;5051794;28;21029;-74
2023/10/12 03:50:17;;;;;;;6.67;3.60;;;20.50;94.80;;;;;;5016871;28;20629;-74
2023/10/12 03:52:52;;;;;;;5.30;3.30;;;20.50;95.00;;;;;;5033794;28;20595;-74
2023/10/12 03:55:28;;;;;;;7.73;3.67;;;20.50;95.20;;;;;;5017376;28;20617;-74
2023/10/12 03:58:05;;;;;;;4.90;3.10;;;20.40;95.50;;;;;;5046372;28;20652;-73
2023/10/12 04:00:50;;;;;;;6.07;3.23;;;20.40;96.00;;;;;;5052685;28;20583;-74
2023/10/12 04:03:33;;;;;;;7.57;3.80;;;20.40;95.90;;;;;;5034814;28;20587;-75
2023/10/12 04:06:05;;;;;;;9.87;4.43;;;20.40;96.10;;;;;;5018514;28;20590;-74
2023/10/12 04:08:39;;;;;;;4.90;3.27;;;20.30;96.30;;;;;;5034992;28;20584;-74
2023/10/12 04:11:46;;;;;;;8.80;4.23;;;20.30;96.50;;;;;;5066963;22;20670;-74
2023/10/12 04:17:06;;;;;;;5.10;3.00;;;20.20;96.80;;;;;;5034641;28;20606;-73
2023/10/12 04:19:33;;;;;;;6.17;2.80;;;20.30;97.10;;;;;;5034598;28;20677;-74
2023/10/12 04:22:15;;;;;;;8.17;3.50;;;20.20;97.20;;;;;;5052480;28;21029;-74
2023/10/12 04:24:48;;;;;;;7.73;3.60;;;20.20;97.40;;;;;;5018197;28;21160;-74
2023/10/12 04:29:50;;;;;;;6.03;3.40;;;20.20;97.80;;;;;;5033997;28;20590;-74
2023/10/12 04:32:27;;;;;;;6.63;2.60;;;20.20;98.00;;;;;;5034432;28;20588;-74
2023/10/12 04:34:53;;;;;;;5.83;3.63;;;20.20;98.20;;;;;;5017703;28;20595;-74
2023/10/12 04:37:25;;;;;;;5.73;3.50;;;20.20;98.50;;;;;;5016667;28;20639;-74
2023/10/12 04:39:56;;;;;;;6.37;3.07;;;20.20;98.70;;;;;;5052026;28;21014;-74
2023/10/12 04:42:26;;;;;;;7.00;3.73;;;20.20;98.80;;;;;;5034510;28;20670;-74
2023/10/12 04:46:05;;;;;;;10.30;3.40;;;20.20;99.00;;;;;;5033963;28;20587;-74
2023/10/12 04:47:38;;;;;;;5.53;3.23;;;20.20;99.20;;;;;;5020174;28;20595;-74
2023/10/12 04:50:07;;;;;;;5.13;3.13;;;20.20;99.30;;;;;;5033606;28;20947;-74
2023/10/12 04:52:32;;;;;;;6.00;3.30;;;20.20;99.90;;;;;;5033827;28;20224;-74
2023/10/12 04:55:06;;;;;;;4.60;3.47;;;20.20;99.70;;;;;;5034257;28;20638;-74
2023/10/12 04:57:34;;;;;;;6.03;3.50;;;20.10;99.80;;;;;;5035741;28;20208;-74
2023/10/12 05:00:12;;;;;;;6.10;3.30;;;20.20;99.90;;;;;;5034600;28;20654;-74
2023/10/12 05:02:53;;;;;;;5.97;3.60;;;20.10;99.90;;;;;;5018739;28;20602;-75
2023/10/12 05:07:54;;;;;;;6.60;3.70;;;20.10;99.90;;;;;;5034135;28;20592;-74
2023/10/12 05:13:05;;;;;;;6.30;3.97;;;20.00;99.90;;;;;;5025638;28;20629;-74
2023/10/12 05:15:46;;;;;;;4.30;3.37;;;20.00;99.90;;;;;;5032958;28;20583;-73
2023/10/12 05:18:13;;;;;;;8.27;3.87;;;19.90;99.90;;;;;;5033578;28;20692;-74
2023/10/12 05:20:42;;;;;;;4.70;3.33;;;19.90;99.90;;;;;;5051221;28;20707;-73
2023/10/12 05:23:09;;;;;;;9.63;4.27;;;19.80;99.90;;;;;;5033513;28;20667;-73
2023/10/12 05:28:17;;;;;;;5.43;3.30;;;19.70;99.90;;;;;;5050879;28;20592;-73
2023/10/12 05:30:59;;;;;;;6.47;3.97;;;19.60;99.90;;;;;;5051201;28;21031;-73
2023/10/12 05:34:00;;;;;;;4.90;3.60;;;19.50;99.90;;;;;;5051255;28;20618;-74
2023/10/12 05:36:14;;;;;;;5.43;3.27;;;19.50;99.90;;;;;;5014858;28;20907;-73
2023/10/12 05:39:09;;;;;;;6.73;3.93;;;19.40;99.90;;;;;;5050641;28;20663;-74
2023/10/12 05:41:35;;;;;;;7.33;4.40;;;19.40;99.90;;;;;;5050746;28;20623;-74
2023/10/12 05:44:08;;;;;;;10.33;4.20;;;19.30;99.90;;;;;;5050888;28;21333;-73
2023/10/12 05:46:35;;;;;;;6.30;4.30;;;19.30;99.90;;;;;;5032876;28;20185;-73
2023/10/12 05:49:03;;;;;;;7.53;3.90;;;19.20;99.90;;;;;;5042784;28;20584;-73
2023/10/12 05:51:28;;;;;;;10.07;4.30;;;19.20;99.90;;;;;;5050616;28;20622;-73
2023/10/12 05:54:01;;;;;;;7.30;4.17;;;19.20;99.90;;;;;;5032932;28;20582;-73
2023/10/12 05:56:29;;;;;;;6.77;4.40;;;19.10;99.90;;;;;;5050459;28;20276;-73
2023/10/12 05:58:55;;;;;;;6.70;3.50;;;19.10;99.90;;;;;;5016647;28;20646;-73
2023/10/12 06:01:35;;;;;;;5.77;4.37;;;19.00;99.90;;;;;;5050610;28;21211;-74
2023/10/12 06:04:08;;;;;;;7.70;4.23;;;19.00;99.90;;;;;;5034414;28;20591;-75
2023/10/12 06:06:41;;;;;;;8.97;4.90;;;19.00;99.90;;;;;;5051586;28;20707;-75
2023/10/12 06:09:20;;;;;;;6.43;4.50;;;18.90;99.90;;;;;;5025847;28;20617;-75
2023/10/12 06:11:48;;;;;;;8.53;6.00;;;18.90;99.90;;;;;;5049464;28;20635;-75
2023/10/12 06:14:15;;;;;;;13.40;4.70;;;18.80;99.90;;;;;;5032678;28;20576;-75
2023/10/12 06:16:46;;;;;;;11.13;5.30;;;18.80;99.90;;;;;;5018781;28;20575;-76
2023/10/12 06:19:21;;;;;;;10.13;4.60;;;18.80;99.90;;;;;;5032682;28;20933;-75
2023/10/12 06:21:51;;;;;;;7.10;4.13;;;18.80;99.90;;;;;;5032038;28;20623;-76
2023/10/12 06:24:21;;;;;;;7.70;4.57;;;18.70;99.90;;;;;;5050260;28;20582;-78
2023/10/12 06:26:50;;;;;;;8.47;4.67;;;18.70;99.90;;;;;;5050260;28;20611;-79
2023/10/12 06:29:24;;;;;;;5.80;4.10;;;18.60;99.90;;;;;;5050491;28;20596;-78
2023/10/12 06:31:54;;;;;;;8.40;5.00;;;18.60;99.90;;;;;;5032309;28;20622;-78
2023/10/12 06:34:23;;;;;;;9.87;5.77;;;18.60;99.90;;;;;;5050494;28;20586;-79
2023/10/12 06:36:57;;;;;;;11.13;5.23;;;18.50;99.90;;;;;;5050089;28;20591;-77
2023/10/12 06:46:53;;;;;;;9.77;4.70;;;18.40;99.90;;;;;;5015296;28;20188;-79
2023/10/12 06:49:23;;;;;;;10.00;4.90;;;18.40;99.90;;;;;;5032451;28;20583;-78
2023/10/12 06:52:10;;;;;;;8.97;5.03;;;18.40;99.90;;;;;;5035836;28;20631;-78
2023/10/12 06:59:59;;;;;;;6.40;4.90;;;18.30;99.90;;;;;;5054146;28;20607;-79
2023/10/12 07:02:29;;;;;;;7.10;4.87;;;18.30;99.90;;;;;;5033047;28;20625;-77
2023/10/12 07:04:59;;;;;;;9.30;4.67;;;18.30;99.90;;;;;;5053304;28;20626;-78
2023/10/12 07:07:41;;;;;;;5.60;4.63;;;18.30;99.90;;;;;;5019166;28;20649;-79
2023/10/12 07:12:52;;;;;;;6.53;5.10;;;18.30;99.90;;;;;;5031324;28;20702;-78
2023/10/12 07:15:21;;;;;;;7.27;4.40;;;18.30;99.90;;;;;;5035429;28;20593;-78
2023/10/12 07:17:50;;;;;;;9.30;5.40;;;18.30;99.90;;;;;;5018450;28;21212;-78
2023/10/12 07:20:27;;;;;;;7.53;5.50;;;18.30;99.90;;;;;;5018908;28;20619;-76
2023/10/12 07:22:54;;;;;;;7.73;5.13;;;18.40;99.90;;;;;;5052972;28;20595;-77
2023/10/12 07:25:22;;;;;;;7.60;4.90;;;18.40;99.90;;;;;;5035330;28;20572;-76
2023/10/12 07:27:56;;;;;;;6.73;5.03;;;18.40;99.90;;;;;;5035273;28;20583;-77
2023/10/12 07:30:30;;;;;;;7.00;5.47;;;18.40;99.90;;;;;;5056434;28;20635;-77
2023/10/12 07:32:59;;;;;;;8.73;5.60;;;18.40;99.90;;;;;;5053444;28;20586;-76
2023/10/12 07:35:34;;;;;;;11.17;4.80;;;18.50;99.90;;;;;;5054531;28;20591;-76
2023/10/12 07:38:01;;;;;;;8.83;4.90;;;18.50;99.90;;;;;;5035262;28;20649;-77
2023/10/12 07:40:34;;;;;;;5.47;4.37;;;18.50;99.90;;;;;;5035468;28;20615;-77
2023/10/12 07:43:04;;;;;;;7.10;4.50;;;18.50;99.90;;;;;;5035270;28;20588;-78
2023/10/12 07:45:48;;;;;;;7.50;5.20;;;18.60;99.90;;;;;;5035361;28;20590;-78
2023/10/12 07:48:29;;;;;;;5.80;4.20;;;18.60;99.90;;;;;;5035361;28;20587;-77
2023/10/12 07:50:56;;;;;;;7.00;4.97;;;18.60;99.90;;;;;;5052686;28;20625;-78
2023/10/12 07:53:24;;;;;;;6.13;5.30;;;18.60;99.90;;;;;;5052931;28;20589;-77
2023/10/12 07:56:06;;;;;;;7.77;4.73;;;18.70;99.90;;;;;;5052537;28;21285;-78
2023/10/12 07:58:31;;;;;;;8.60;5.00;;;18.70;99.90;;;;;;5052820;28;20671;-78
2023/10/12 08:04:00;;;;;;;8.63;5.07;;;18.70;99.90;;;;;;4990915;28;20183;-77
2023/10/12 08:09:05;;;;;;;9.60;5.20;;;18.60;99.90;;;;;;5052740;28;20587;-78
2023/10/12 08:11:34;;;;;;;8.27;4.80;;;18.70;99.90;;;;;;5052370;28;20685;-77
2023/10/12 08:14:39;;;;;;;7.67;5.20;;;18.70;99.90;;;;;;5033999;28;20675;-77
2023/10/12 08:19:39;;;;;;;9.67;6.03;;;18.70;99.90;;;;;;5051520;28;20674;-77
2023/10/12 08:22:25;;;;;;;8.60;4.50;;;18.80;99.90;;;;;;5033608;28;20687;-77
2023/10/12 08:24:53;;;;;;;7.70;4.40;;;18.80;99.90;;;;;;5034248;28;20587;-77
2023/10/12 08:27:19;;;;;;;9.83;5.30;;;18.70;99.90;;;;;;5051239;28;20591;-77
2023/10/12 08:32:14;;;;;;;6.37;5.03;;;18.80;99.90;;;;;;5052082;28;21360;-78
2023/10/12 08:35:10;;;;;;;7.37;5.10;;;18.90;99.90;;;;;;5034234;28;20199;-78
2023/10/12 08:37:36;;;;;;;9.37;5.43;;;18.90;99.90;;;;;;5033645;28;20631;-78
2023/10/12 08:40:08;;;;;;;8.50;4.97;;;18.90;99.90;;;;;;5034014;28;20659;-78
2023/10/12 08:45:09;;;;;;;8.57;4.77;;;18.90;99.90;;;;;;5051754;28;20601;-78
2023/10/12 08:50:08;;;;;;;7.27;5.33;;;19.00;99.90;;;;;;5051833;28;20685;-77
2023/10/12 08:52:38;;;;;;;8.00;6.00;;;19.00;99.90;;;;;;5051560;28;20593;-78
2023/10/12 08:55:12;;;;;;;7.37;4.80;;;19.10;99.90;;;;;;5028587;28;20598;-79
2023/10/12 08:58:01;;;;;;;8.13;5.40;;;19.20;99.90;;;;;;5033752;28;20734;-77
2023/10/12 09:03:04;;;;;;;8.20;5.40;;;19.20;99.90;;;;;;5033421;28;20579;-78
2023/10/12 09:05:31;;;;;;;6.93;5.00;;;19.30;99.90;;;;;;5051045;28;20579;-78
2023/10/12 09:08:39;;;;;;;13.43;7.10;;;19.30;99.90;;;;;;5033599;28;20586;-78
2023/10/12 09:13:34;;;;;;;7.10;5.13;;;19.30;99.90;;;;;;5032522;28;21182;-78
2023/10/12 09:16:10;;;;;;;7.73;4.43;;;19.30;99.90;;;;;;5051166;28;20648;-78
2023/10/12 09:23:50;;;;;;;6.80;4.80;;;19.50;99.90;;;;;;5051249;28;21047;-78
2023/10/12 09:26:30;;;;;;;8.93;5.47;;;19.60;99.90;;;;;;5025131;28;21126;-78
2023/10/12 09:29:42;;;;;;;7.37;5.40;;;19.60;99.90;;;;;;5032942;28;20654;-78
2023/10/12 09:36:55;;;;;;;6.10;5.40;;;19.80;99.90;;;;;;5032921;28;20319;-78
2023/10/12 09:39:28;;;;;;;12.63;6.10;;;19.80;99.90;;;;;;5016813;28;21039;-78
2023/10/12 09:41:55;;;;;;;7.33;5.13;;;19.80;99.90;;;;;;5050694;28;20629;-78
2023/10/12 09:44:28;;;;;;;8.63;5.10;;;19.90;99.90;;;;;;5050854;28;20575;-77
2023/10/12 09:46:56;;;;;;;9.27;5.43;;;20.00;99.90;;;;;;5050904;28;20583;-77
2023/10/12 09:49:27;;;;;;;12.33;5.77;;;20.00;99.90;;;;;;5033002;28;20670;-78
2023/10/12 09:52:13;;;;;;;12.20;6.10;;;20.10;99.90;;;;;;5032714;28;21011;-77
2023/10/12 09:55:06;;;;;;;9.00;6.00;;;20.20;99.90;;;;;;5032681;28;20595;-76
2023/10/12 09:57:32;;;;;;;9.47;5.83;;;20.30;99.90;;;;;;5035471;28;20647;-78
2023/10/12 10:00:10;;;;;;;6.70;4.73;;;20.40;99.90;;;;;;5050774;28;20719;-79
2023/10/12 10:02:42;;;;;;;9.20;5.50;;;20.50;99.90;;;;;;5032282;28;20625;-79
2023/10/12 10:05:11;;;;;;;6.80;5.40;;;20.70;99.90;;;;;;5049292;28;20594;-78
2023/10/12 10:08:02;;;;;;;6.80;4.50;;;20.90;99.90;;;;;;5033185;28;20634;-78
2023/10/12 10:10:31;;;;;;;9.50;6.87;;;21.10;99.90;;;;;;5050740;28;20631;-78
2023/10/12 10:13:00;;;;;;;9.23;6.90;;;21.40;99.90;;;;;;5018652;28;20679;-78
2023/10/12 10:15:38;;;;;;;8.97;6.57;;;21.50;99.90;;;;;;5039881;28;20587;-77
2023/10/12 10:18:04;;;;;;;8.17;5.87;;;21.60;99.90;;;;;;5050268;28;20634;-77
2023/10/12 10:20:56;;;;;;;7.20;5.27;;;21.80;99.90;;;;;;5050163;28;20948;-78
2023/10/12 10:23:23;;;;;;;8.23;5.10;;;22.00;99.90;;;;;;5050361;28;20618;-77
2023/10/12 10:26:16;;;;;;;7.20;4.50;;;22.30;99.90;;;;;;5036483;28;20579;-79
2023/10/12 10:29:04;;;;;;;5.90;4.80;;;22.50;99.90;;;;;;5033873;28;20606;-79
2023/10/12 10:31:33;;;;;;;6.80;3.97;;;22.60;99.90;;;;;;5052091;28;20630;-79
2023/10/12 10:34:01;;;;;;;5.77;4.07;;;22.70;99.90;;;;;;5040002;28;21168;-79
2023/10/12 10:36:34;;;;;;;7.47;4.53;;;22.90;99.90;;;;;;5042485;28;20611;-79
2023/10/12 10:41:54;;;;;;;6.83;5.40;;;23.30;99.90;;;;;;5017768;28;20611;-79
2023/10/12 10:44:22;;;;;;;6.60;4.77;;;23.50;99.90;;;;;;5039089;28;20587;-79
2023/10/12 10:46:57;;;;;;;7.83;4.50;;;23.70;99.90;;;;;;5052880;28;20921;-79
2023/10/12 10:49:30;;;;;;;9.93;4.50;;;23.90;99.90;;;;;;5030742;28;20602;-79
2023/10/12 10:54:33;;;;;;;5.97;4.30;;;24.20;99.90;;;;;;5032546;28;20606;-78
2023/10/12 10:57:04;;;;;;;6.23;4.23;;;24.30;99.90;;;;;;5031869;28;20595;-78
2023/10/12 10:59:31;;;;;;;9.83;4.67;;;24.30;99.90;;;;;;5050119;28;21015;-78
2023/10/12 11:01:59;;;;;;;7.43;4.20;;;24.30;99.90;;;;;;5050039;28;20694;-79
2023/10/12 11:04:41;;;;;;;5.90;4.43;;;24.30;99.90;;;;;;5049866;28;20640;-78
2023/10/12 11:07:15;;;;;;;6.73;4.27;;;24.30;99.90;;;;;;5032010;28;20592;-78
2023/10/12 11:12:20;;;;;;;6.87;5.13;;;24.00;99.90;;;;;;5040682;28;20622;-78
2023/10/12 11:14:52;;;;;;;10.13;5.77;;;23.90;99.90;;;;;;5050351;28;20579;-78
2023/10/12 11:17:21;;;;;;;8.17;5.20;;;23.80;99.90;;;;;;5049839;28;20583;-78
2023/10/12 11:19:50;;;;;;;8.43;5.70;;;23.70;99.90;;;;;;5048735;28;20610;-78
2023/10/12 11:22:17;;;;;;;8.07;4.90;;;23.60;99.90;;;;;;5032263;28;20588;-78
2023/10/12 11:24:53;;;;;;;7.53;5.53;;;23.60;99.90;;;;;;5031830;28;20954;-79
2023/10/12 11:27:34;;;;;;;6.33;4.97;;;23.50;99.90;;;;;;5031462;28;20579;-78
2023/10/12 11:30:06;;;;;;;7.20;4.70;;;23.50;99.90;;;;;;5049554;28;20626;-78
2023/10/12 11:32:51;;;;;;;6.17;4.43;;;23.50;99.90;;;;;;5046723;28;20596;-79
2023/10/12 11:35:17;;;;;;;6.20;3.90;;;23.60;99.90;;;;;;5048932;28;20798;-79
2023/10/12 11:37:43;;;;;;;5.50;3.70;;;23.60;99.90;;;;;;5034851;28;20726;-78
2023/10/12 11:40:09;;;;;;;5.40;3.70;;;23.70;99.90;;;;;;5035315;28;20635;-77
2023/10/12 11:42:52;;;;;;;5.83;4.23;;;23.80;99.90;;;;;;5035207;28;20196;-78
2023/10/12 11:45:18;;;;;;;6.73;3.20;;;23.90;99.90;;;;;;5018790;28;20757;-78
2023/10/12 11:47:44;;;;;;;6.90;3.40;;;24.00;99.90;;;;;;5055937;28;20583;-78
2023/10/12 11:50:09;;;;;;;6.53;3.37;;;24.10;99.90;;;;;;5034582;28;20733;-77
2023/10/12 11:52:37;;;;;;;7.33;3.73;;;24.20;99.90;;;;;;5034937;28;20189;-77
2023/10/12 11:55:20;;;;;;;5.50;3.47;;;24.20;99.90;;;;;;5034868;28;20587;-76
2023/10/12 11:58:06;;;;;;;6.77;3.60;;;24.20;99.90;;;;;;4996905;28;20966;-77
2023/10/12 12:00:41;;;;;;;5.97;4.17;;;24.30;99.90;;;;;;5045152;28;20653;-77
2023/10/12 12:03:08;;;;;;;8.00;3.37;;;24.30;99.90;;;;;;5052552;28;20637;-77
2023/10/12 12:05:36;;;;;;;7.77;3.27;;;24.40;99.90;;;;;;5018105;28;20595;-77
2023/10/12 12:08:13;;;;;;;3.60;3.10;;;24.50;99.90;;;;;;5034441;28;20680;-76
2023/10/12 12:13:08;;;;;;;8.53;4.10;;;24.70;99.90;;;;;;5052703;28;20579;-75
2023/10/12 12:15:40;;;;;;;7.00;3.20;;;24.80;99.90;;;;;;5035072;28;20587;-76
2023/10/12 12:18:14;;;;;;;3.93;2.80;;;24.90;99.90;;;;;;5058677;28;20719;-76
2023/10/12 12:20:43;;;;;;;6.70;3.83;;;25.00;99.90;;;;;;5038248;28;20626;-76
2023/10/12 12:23:10;;;;;;;5.90;2.90;;;25.00;99.90;;;;;;5058081;28;20588;-76
2023/10/12 12:25:39;;;;;;;5.70;3.67;;;24.90;99.90;;;;;;5037146;28;20592;-75
2023/10/12 12:28:18;;;;;;;6.13;2.83;;;24.90;99.90;;;;;;5032093;28;20588;-76
2023/10/12 12:30:51;;;;;;;7.50;2.93;;;24.70;99.90;;;;;;5035005;28;20625;-75
2023/10/12 12:33:19;;;;;;;7.40;3.60;;;24.60;99.90;;;;;;5076446;22;20794;-76
2023/10/12 12:35:47;;;;;;;4.87;3.70;;;24.50;99.90;;;;;;5037577;28;20632;-76
2023/10/12 12:41:05;;;;;;;5.27;2.37;;;24.30;99.90;;;;;;5026553;28;20590;-76
2023/10/12 12:43:34;;;;;;;5.50;3.30;;;24.20;99.90;;;;;;5085434;28;20602;-76
2023/10/12 12:46:00;;;;;;;7.03;2.67;;;24.10;99.90;;;;;;5073896;28;20598;-76
2023/10/12 12:48:26;;;;;;;4.63;2.30;;;24.00;99.90;;;;;;5073354;28;20570;-76
2023/10/12 12:50:52;;;;;;;6.63;2.60;;;23.90;99.90;;;;;;5092131;28;20651;-76
2023/10/12 12:53:20;;;;;;;5.70;3.00;;;23.80;99.90;;;;;;5073466;28;20200;-76
2023/10/12 12:55:47;;;;;;;5.77;2.87;;;23.80;99.90;;;;;;5077106;28;20637;-76
2023/10/12 12:58:17;;;;;;;4.40;3.07;;;23.70;99.90;;;;;;5071575;28;20638;-75
2023/10/12 13:00:46;;;;;;;6.20;2.60;;;23.60;99.90;;;;;;5053328;28;20602;-76
2023/10/12 13:03:13;;;;;;;4.60;2.33;;;23.60;99.90;;;;;;5073715;28;20613;-77
2023/10/12 13:05:38;;;;;;;6.10;3.10;;;23.50;99.90;;;;;;5073674;28;20636;-76
2023/10/12 13:08:07;;;;;;;7.27;3.03;;;23.40;99.90;;;;;;5048419;28;20618;-76
2023/10/12 13:10:34;;;;;;;7.83;3.10;;;23.30;99.90;;;;;;5073812;28;20729;-76
2023/10/12 13:13:01;;;;;;;7.27;2.53;;;23.30;99.90;;;;;;5065548;28;20708;-77
2023/10/12 13:15:27;;;;;;;5.33;2.23;;;23.20;99.90;;;;;;5073713;28;20574;-76
2023/10/12 13:17:53;;;;;;;7.00;2.53;;;23.20;99.90;;;;;;5073750;28;20641;-76
2023/10/12 13:20:21;;;;;;;5.97;3.37;;;23.10;99.90;;;;;;5048703;28;20583;-76
2023/10/12 13:22:50;;;;;;;6.90;2.83;;;23.10;99.90;;;;;;5099950;28;20206;-76
2023/10/12 13:25:19;;;;;;;6.13;2.37;;;23.00;99.90;;;;;;5056904;28;20578;-77
2023/10/12 13:27:46;;;;;;;3.63;2.60;;;22.90;99.90;;;;;;5075786;28;20585;-76
2023/10/12 13:30:14;;;;;;;5.83;2.80;;;22.80;99.90;;;;;;5075409;28;20652;-76
2023/10/12 13:32:42;;;;;;;4.87;2.40;;;22.70;99.90;;;;;;5086115;28;20629;-75
2023/10/12 13:38:10;;;;;;;8.93;3.00;;;22.60;99.90;;;;;;5007398;28;20636;-75
2023/10/12 13:40:40;;;;;;;5.60;3.07;;;22.50;99.90;;;;;;5078811;28;20578;-76
2023/10/12 13:43:18;;;;;;;6.67;3.30;;;22.40;99.90;;;;;;5083041;28;20612;-76
2023/10/12 13:45:48;;;;;;;9.30;4.00;;;22.30;99.90;;;;;;5085114;28;20587;-75
2023/10/12 13:48:29;;;;;;;8.73;3.40;;;22.20;99.90;;;;;;5088830;28;20585;-75
2023/10/12 13:51:01;;;;;;;9.77;2.97;;;22.10;99.90;;;;;;5072882;28;20646;-77
2023/10/12 13:53:28;;;;;;;7.80;5.70;;;22.10;99.90;;;;;;5072792;28;20613;-75
2023/10/12 13:55:53;;;;;;;10.70;4.67;;;22.00;99.90;;;;;;5091058;28;20681;-76
2023/10/12 13:58:25;;;;;;;7.70;4.77;;;21.90;99.90;;;;;;5090986;28;20748;-76
2023/10/12 14:00:54;;;;;;;5.57;3.50;;;21.90;99.90;;;;;;5090484;28;20179;-75
2023/10/12 14:03:28;;;;;;;9.63;5.57;;;21.80;99.90;;;;;;5072055;28;20610;-75
2023/10/12 14:05:56;;;;;;;10.73;5.20;;;21.70;99.90;;;;;;5070478;28;20620;-76
2023/10/12 14:08:22;;;;;;;12.13;4.87;;;21.80;99.90;;;;;;5070727;28;20590;-75
2023/10/12 14:10:49;;;;;;;6.10;4.40;;;21.70;99.90;;;;;;5052790;28;20678;-75
2023/10/12 14:13:14;;;;;;;8.80;4.00;;;21.80;99.90;;;;;;5070461;28;20705;-76
2023/10/12 14:15:43;;;;;;;5.93;3.97;;;21.80;99.90;;;;;;5082798;28;20677;-75
2023/10/12 14:18:11;;;;;;;6.07;2.87;;;21.80;99.90;;;;;;5092026;28;20196;-75
2023/10/12 14:20:42;;;;;;;4.00;3.10;;;21.80;99.90;;;;;;5056108;28;20601;-75
2023/10/12 14:23:07;;;;;;;4.90;2.43;;;21.80;99.90;;;;;;5090633;28;20606;-75
2023/10/12 14:25:43;;;;;;;7.67;3.17;;;21.80;99.90;;;;;;5090522;28;20667;-78
2023/10/12 14:28:17;;;;;;;3.40;2.60;;;21.80;99.90;;;;;;5079305;28;20715;-76
2023/10/12 14:30:47;;;;;;;5.57;2.93;;;21.80;99.90;;;;;;5067362;28;20586;-76
2023/10/12 14:33:15;;;;;;;6.23;3.63;;;21.80;99.90;;;;;;5035421;28;20640;-77
2023/10/12 14:35:41;;;;;;;3.80;2.53;;;21.80;99.90;;;;;;5059358;28;20626;-76
2023/10/12 14:38:12;;;;;;;5.83;3.77;;;21.80;99.90;;;;;;5070400;28;20626;-76
2023/10/12 14:40:40;;;;;;;8.50;3.60;;;21.80;99.90;;;;;;5035878;28;20939;-75
2023/10/12 14:43:10;;;;;;;5.97;3.80;;;21.80;99.90;;;;;;5078805;28;20605;-76
2023/10/12 14:45:48;;;;;;;4.03;3.00;;;21.70;99.90;;;;;;5082901;28;20590;-76
2023/10/12 14:48:17;;;;;;;7.73;3.57;;;21.70;99.90;;;;;;5072014;28;20586;-76
2023/10/12 14:50:49;;;;;;;5.20;3.00;;;21.70;99.90;;;;;;5050779;28;20605;-75